Time;durP1;ratioP1;P1;durP2;ratioP2;P2;SDS_P1;SDS_P2;PMS_P1;PMS_P2;Temp;Humidity;BMP_temperature;BMP_pressure;BME280_temperature;BME280_humidity;BME280_pressure;Samples;Min_cycle;Max_cycle;Signal;HPM_P1;HPM_P2
2022/12/29 00:01:10;;;;;;;9.73;7.88;;;2.20;99.90;;;;;;5033623;28;20209;-85
2022/12/29 00:03:38;;;;;;;9.98;7.85;;;2.10;99.90;;;;;;5033286;28;20206;-86
2022/12/29 00:06:08;;;;;;;10.50;9.27;;;2.10;99.90;;;;;;5033295;28;20227;-85
2022/12/29 00:08:42;;;;;;;8.53;7.63;;;2.10;99.90;;;;;;5033271;28;20236;-84
2022/12/29 00:11:12;;;;;;;8.77;7.87;;;2.00;99.90;;;;;;5033416;28;20214;-85
2022/12/29 00:16:26;;;;;;;9.00;7.95;;;2.00;99.90;;;;;;5033093;28;20230;-85
2022/12/29 00:18:55;;;;;;;8.93;7.60;;;2.00;99.90;;;;;;5033431;28;20206;-85
2022/12/29 00:35:30;;;;;;;7.90;7.13;;;1.90;99.90;;;;;;5032926;28;20297;-84
2022/12/29 00:46:20;;;;;;;8.70;5.28;;;1.80;99.90;;;;;;5032789;28;20233;-85
2022/12/29 00:51:34;;;;;;;8.40;6.93;;;1.80;99.90;;;;;;5032725;28;20206;-84
2022/12/29 00:54:04;;;;;;;8.05;6.10;;;1.80;99.90;;;;;;5032759;28;20206;-85
2022/12/29 00:56:32;;;;;;;6.10;5.20;;;1.90;99.90;;;;;;5032487;28;20322;-85
2022/12/29 00:59:02;;;;;;;6.22;5.63;;;1.90;99.90;;;;;;5032407;28;20289;-85
2022/12/29 01:01:30;;;;;;;8.55;5.65;;;1.90;99.90;;;;;;5032444;28;20221;-85
2022/12/29 01:03:59;;;;;;;7.93;7.03;;;1.90;99.90;;;;;;5033373;28;20281;-84
2022/12/29 01:06:31;;;;;;;9.68;6.07;;;1.80;99.90;;;;;;5036650;28;20226;-85
2022/12/29 01:11:48;;;;;;;6.82;5.35;;;1.80;99.90;;;;;;5036730;28;20459;-85
2022/12/29 01:14:17;;;;;;;7.53;6.22;;;1.70;99.90;;;;;;5036654;28;20213;-85
2022/12/29 01:16:45;;;;;;;8.52;6.70;;;1.70;99.90;;;;;;5035549;28;20226;-84
2022/12/29 01:19:14;;;;;;;9.17;6.00;;;1.70;99.90;;;;;;5036609;28;20206;-85
2022/12/29 01:21:43;;;;;;;9.00;6.63;;;1.70;99.90;;;;;;5036430;28;20202;-85
2022/12/29 01:24:11;;;;;;;8.47;7.27;;;1.60;99.90;;;;;;5036717;28;20364;-85
2022/12/29 01:26:39;;;;;;;8.13;6.43;;;1.60;99.90;;;;;;5036233;28;20290;-85
2022/12/29 01:29:10;;;;;;;9.05;7.07;;;1.60;99.90;;;;;;5036154;28;20210;-85
2022/12/29 01:31:38;;;;;;;9.52;6.45;;;1.50;99.90;;;;;;5036173;28;20298;-85
2022/12/29 01:34:07;;;;;;;7.40;6.70;;;1.50;99.90;;;;;;5035870;28;20240;-85
2022/12/29 01:36:35;;;;;;;9.07;7.10;;;1.50;99.90;;;;;;5035871;28;20238;-84
2022/12/29 01:39:04;;;;;;;6.90;6.20;;;1.50;99.90;;;;;;5036258;28;20202;-84
2022/12/29 01:41:32;;;;;;;10.43;7.40;;;1.40;99.90;;;;;;5035972;28;20213;-84
2022/12/29 01:44:02;;;;;;;8.57;6.57;;;1.40;99.90;;;;;;5036134;28;20260;-85
2022/12/29 01:46:35;;;;;;;10.43;7.10;;;1.40;99.90;;;;;;5035622;28;20223;-84
2022/12/29 01:49:12;;;;;;;8.48;7.20;;;1.40;99.90;;;;;;5035842;28;20210;-87
2022/12/29 01:51:45;;;;;;;7.93;7.10;;;1.40;99.90;;;;;;5035831;28;20229;-85
2022/12/29 01:54:25;;;;;;;8.40;7.23;;;1.40;99.90;;;;;;5035957;28;20226;-84
2022/12/29 01:56:54;;;;;;;8.35;7.47;;;1.40;99.90;;;;;;5035313;28;20222;-84
2022/12/29 01:59:34;;;;;;;7.18;6.47;;;1.40;99.90;;;;;;5035963;28;20210;-86
2022/12/29 02:02:05;;;;;;;7.85;6.78;;;1.40;99.90;;;;;;5035742;28;20207;-85
2022/12/29 02:04:35;;;;;;;7.60;6.10;;;1.40;99.90;;;;;;5035780;28;20269;-85
2022/12/29 02:07:07;;;;;;;9.15;7.07;;;1.40;99.90;;;;;;5035442;28;20213;-85
2022/12/29 02:09:35;;;;;;;8.98;7.20;;;1.50;99.90;;;;;;5035596;28;20206;-85
2022/12/29 02:12:03;;;;;;;7.53;6.72;;;1.50;99.90;;;;;;5035618;28;20213;-86
2022/12/29 02:14:32;;;;;;;7.50;6.70;;;1.50;99.90;;;;;;5034972;28;20214;-85
2022/12/29 02:17:11;;;;;;;6.55;5.95;;;1.50;99.90;;;;;;5035736;28;20202;-85
2022/12/29 02:20:10;;;;;;;7.20;6.50;;;1.50;99.90;;;;;;5035570;28;20214;-86
2022/12/29 02:22:49;;;;;;;6.63;5.70;;;1.50;99.90;;;;;;5035166;28;20207;-84
2022/12/29 02:25:41;;;;;;;6.37;5.50;;;1.50;99.90;;;;;;5034999;28;20236;-85
2022/12/29 02:28:44;;;;;;;5.47;5.07;;;1.50;99.90;;;;;;5034781;28;20202;-84
2022/12/29 02:31:21;;;;;;;6.25;5.65;;;1.50;99.90;;;;;;5033163;28;20221;-85
2022/12/29 02:33:59;;;;;;;6.70;5.93;;;1.40;99.90;;;;;;5034888;28;20218;-85
2022/12/29 02:36:38;;;;;;;7.25;6.30;;;1.40;99.90;;;;;;5034895;28;20242;-85
2022/12/29 02:39:15;;;;;;;8.17;7.30;;;1.40;99.90;;;;;;5034549;28;20234;-85
2022/12/29 02:41:49;;;;;;;7.43;6.40;;;1.30;99.90;;;;;;5034847;28;20221;-85
2022/12/29 02:44:27;;;;;;;7.10;6.40;;;1.30;99.90;;;;;;5035443;28;20305;-84
2022/12/29 02:47:03;;;;;;;7.30;6.60;;;1.30;99.90;;;;;;5034372;28;20210;-85
2022/12/29 02:49:37;;;;;;;7.10;6.40;;;1.20;99.90;;;;;;5034768;28;20221;-85
2022/12/29 02:52:10;;;;;;;6.72;6.13;;;1.20;99.90;;;;;;5034647;28;20206;-84
2022/12/29 02:54:43;;;;;;;6.57;5.93;;;1.20;99.90;;;;;;5034625;28;20234;-85
2022/12/29 02:57:27;;;;;;;6.13;5.43;;;1.20;99.90;;;;;;5034250;28;20210;-84
2022/12/29 02:59:59;;;;;;;7.37;6.53;;;1.10;99.90;;;;;;5034368;28;20206;-86
2022/12/29 03:02:49;;;;;;;7.80;6.30;;;1.10;99.90;;;;;;5034454;28;20206;-84
2022/12/29 03:05:26;;;;;;;9.93;7.63;;;1.10;99.90;;;;;;5034328;28;20226;-85
2022/12/29 03:08:03;;;;;;;9.50;7.27;;;1.10;99.90;;;;;;5034393;28;20289;-85
2022/12/29 03:10:44;;;;;;;17.20;8.80;;;1.10;99.90;;;;;;5034599;28;20217;-85
2022/12/29 03:16:20;;;;;;;11.47;6.87;;;1.10;99.90;;;;;;5034209;28;20230;-84
2022/12/29 03:18:57;;;;;;;8.73;6.80;;;1.10;99.90;;;;;;5033654;28;20226;-85
2022/12/29 03:24:30;;;;;;;7.78;6.05;;;1.10;99.90;;;;;;5021609;28;20207;-86
2022/12/29 03:27:01;;;;;;;9.20;7.20;;;1.10;99.90;;;;;;5033249;28;20209;-86
2022/12/29 03:29:34;;;;;;;7.50;6.45;;;1.10;99.90;;;;;;5033752;28;20209;-85
2022/12/29 03:32:04;;;;;;;6.83;6.13;;;1.10;99.90;;;;;;5033855;28;20217;-84
2022/12/29 03:34:35;;;;;;;8.57;6.27;;;1.10;99.90;;;;;;5033681;28;20207;-85
2022/12/29 03:37:08;;;;;;;7.57;6.07;;;1.10;99.90;;;;;;5033669;28;20222;-85
2022/12/29 03:39:37;;;;;;;11.87;7.70;;;1.20;99.90;;;;;;5033307;28;20231;-84
2022/12/29 03:42:10;;;;;;;7.33;6.10;;;1.10;99.90;;;;;;5033623;28;20210;-84
2022/12/29 03:44:41;;;;;;;6.33;5.30;;;1.10;99.90;;;;;;5033760;28;20226;-84
2022/12/29 03:47:11;;;;;;;6.57;5.88;;;1.20;99.90;;;;;;5033130;28;20209;-84
2022/12/29 03:49:42;;;;;;;6.63;5.85;;;1.20;99.90;;;;;;5033560;28;20209;-84
2022/12/29 03:52:10;;;;;;;7.87;6.50;;;1.20;99.90;;;;;;5033184;28;20213;-84
2022/12/29 03:54:38;;;;;;;6.63;5.90;;;1.20;99.90;;;;;;5033124;28;20241;-84
2022/12/29 03:57:07;;;;;;;6.65;6.05;;;1.20;99.90;;;;;;5033281;28;20206;-84
2022/12/29 03:59:35;;;;;;;6.67;5.93;;;1.20;99.90;;;;;;5032942;28;20234;-84
2022/12/29 04:02:03;;;;;;;7.23;6.07;;;1.20;99.90;;;;;;5033109;28;20198;-84
2022/12/29 04:04:31;;;;;;;6.73;6.13;;;1.20;99.90;;;;;;5033115;28;20211;-84
2022/12/29 04:07:02;;;;;;;7.20;5.73;;;1.20;99.90;;;;;;5032929;28;20210;-85
2022/12/29 04:09:31;;;;;;;10.60;6.50;;;1.20;99.90;;;;;;5033231;28;20238;-84
2022/12/29 04:11:59;;;;;;;8.45;7.05;;;1.30;99.90;;;;;;5033223;28;20256;-85
2022/12/29 04:14:27;;;;;;;6.73;6.03;;;1.20;99.90;;;;;;5032787;28;20317;-84
2022/12/29 04:16:56;;;;;;;6.50;5.67;;;1.30;99.90;;;;;;5033489;28;20264;-84
2022/12/29 04:19:24;;;;;;;6.90;6.20;;;1.30;99.90;;;;;;5032795;28;20230;-85
2022/12/29 04:21:52;;;;;;;10.00;6.47;;;1.30;99.90;;;;;;5033446;28;20294;-85
2022/12/29 04:24:22;;;;;;;13.20;6.23;;;1.30;99.90;;;;;;5033077;28;20281;-85
2022/12/29 04:26:51;;;;;;;7.17;6.10;;;1.30;99.90;;;;;;5033205;28;20207;-85
2022/12/29 04:29:19;;;;;;;7.20;6.50;;;1.30;99.90;;;;;;5033036;28;20213;-84
2022/12/29 04:31:47;;;;;;;7.43;6.07;;;1.30;99.90;;;;;;5032818;28;20210;-85
2022/12/29 04:34:16;;;;;;;9.50;7.10;;;1.30;99.90;;;;;;5032801;28;20206;-85
2022/12/29 04:36:45;;;;;;;6.43;5.83;;;1.20;99.90;;;;;;5032615;28;20313;-85
2022/12/29 04:39:13;;;;;;;11.98;6.03;;;1.20;99.90;;;;;;5032368;28;20238;-84
2022/12/29 04:41:43;;;;;;;9.25;6.57;;;1.20;99.90;;;;;;5032715;28;20233;-85
2022/12/29 04:44:11;;;;;;;9.03;6.17;;;1.20;99.90;;;;;;5032869;28;20214;-84
2022/12/29 04:46:39;;;;;;;9.13;6.22;;;1.20;99.90;;;;;;5032338;28;20219;-85
2022/12/29 04:49:08;;;;;;;6.93;6.23;;;1.10;99.90;;;;;;5032694;28;20241;-85
2022/12/29 04:51:37;;;;;;;6.85;6.18;;;1.20;99.90;;;;;;5032558;28;20210;-85
2022/12/29 04:54:05;;;;;;;7.00;6.20;;;1.10;99.90;;;;;;5032573;28;20206;-85
2022/12/29 04:56:33;;;;;;;5.97;5.47;;;1.10;99.90;;;;;;5032915;28;20230;-85
2022/12/29 04:59:03;;;;;;;7.00;6.30;;;1.10;99.90;;;;;;5032174;28;20222;-85
2022/12/29 05:01:32;;;;;;;7.70;6.53;;;1.10;99.90;;;;;;5032446;28;20296;-85
2022/12/29 05:04:01;;;;;;;11.33;5.80;;;1.10;99.90;;;;;;5032356;28;20207;-85
2022/12/29 05:06:29;;;;;;;10.53;6.47;;;1.10;99.90;;;;;;5032815;28;20240;-85
2022/12/29 05:08:57;;;;;;;6.73;6.03;;;1.10;99.90;;;;;;5032630;28;20293;-85
2022/12/29 05:11:26;;;;;;;6.73;6.10;;;1.10;99.90;;;;;;5032581;28;20198;-85
2022/12/29 05:13:54;;;;;;;7.30;6.60;;;1.00;99.90;;;;;;5032357;28;20289;-85
2022/12/29 05:16:23;;;;;;;8.23;6.20;;;1.10;99.90;;;;;;5032462;28;20265;-86
2022/12/29 05:18:52;;;;;;;7.67;6.47;;;1.00;99.90;;;;;;5032269;28;20253;-85
2022/12/29 05:21:20;;;;;;;7.63;6.65;;;1.10;99.90;;;;;;5032358;28;20206;-85
2022/12/29 05:23:48;;;;;;;6.27;5.63;;;1.00;99.90;;;;;;5032459;28;20210;-85
2022/12/29 05:26:16;;;;;;;7.83;6.53;;;1.00;99.90;;;;;;5031878;28;20237;-85
2022/12/29 05:28:45;;;;;;;8.73;6.70;;;1.10;99.90;;;;;;5032137;28;20210;-85
2022/12/29 05:31:14;;;;;;;8.50;6.68;;;1.10;99.90;;;;;;5032191;28;20213;-85
2022/12/29 05:33:43;;;;;;;6.37;5.77;;;1.00;99.90;;;;;;5032400;28;20284;-85
2022/12/29 05:36:12;;;;;;;7.70;6.90;;;1.00;99.90;;;;;;5031899;28;20244;-85
2022/12/29 05:38:41;;;;;;;7.23;6.53;;;1.00;99.90;;;;;;5031857;28;20210;-85
2022/12/29 05:41:09;;;;;;;6.90;6.07;;;1.00;99.90;;;;;;5032283;28;20217;-85
2022/12/29 05:43:39;;;;;;;9.77;7.30;;;1.00;99.90;;;;;;5031982;28;20257;-85
2022/12/29 05:46:07;;;;;;;7.50;6.70;;;1.00;99.90;;;;;;5032043;28;20313;-85
2022/12/29 05:48:35;;;;;;;6.53;5.93;;;1.00;99.90;;;;;;5032092;28;20229;-85
2022/12/29 05:51:07;;;;;;;7.77;6.97;;;1.00;99.90;;;;;;5034998;28;20206;-85
2022/12/29 05:53:35;;;;;;;7.73;6.97;;;1.00;99.90;;;;;;5035801;28;20206;-85
2022/12/29 05:56:03;;;;;;;9.13;6.95;;;1.00;99.90;;;;;;5035449;28;20228;-85
2022/12/29 05:58:31;;;;;;;7.70;6.90;;;1.00;99.90;;;;;;5035434;28;20206;-85
2022/12/29 06:01:00;;;;;;;7.90;7.20;;;1.00;99.90;;;;;;5035290;28;20261;-85
2022/12/29 06:03:28;;;;;;;7.90;6.53;;;1.00;99.90;;;;;;5035593;28;20214;-85
2022/12/29 06:05:57;;;;;;;9.68;7.70;;;1.00;99.90;;;;;;5035472;28;20261;-85
2022/12/29 06:08:27;;;;;;;8.20;7.40;;;1.00;99.90;;;;;;5035066;28;20248;-84
2022/12/29 06:10:55;;;;;;;9.40;6.70;;;1.00;99.90;;;;;;5035813;28;20221;-84
2022/12/29 06:13:23;;;;;;;8.50;6.90;;;0.90;99.90;;;;;;5035664;28;20213;-84
2022/12/29 06:15:51;;;;;;;11.87;7.37;;;0.90;99.90;;;;;;5035286;28;20230;-84
2022/12/29 06:18:20;;;;;;;8.33;6.67;;;0.80;99.90;;;;;;5035222;28;20210;-84
2022/12/29 06:20:48;;;;;;;9.23;7.40;;;0.80;99.90;;;;;;5035483;28;20226;-84
2022/12/29 06:23:18;;;;;;;9.07;6.57;;;0.70;99.90;;;;;;5035150;28;20213;-85
2022/12/29 06:25:49;;;;;;;7.73;6.77;;;0.70;99.90;;;;;;5035028;28;20226;-84
2022/12/29 06:28:17;;;;;;;8.00;6.90;;;0.70;99.90;;;;;;5034954;28;20249;-84
2022/12/29 06:30:46;;;;;;;9.30;7.43;;;0.60;99.90;;;;;;5034288;28;20210;-85
2022/12/29 06:33:15;;;;;;;7.43;6.60;;;0.60;99.90;;;;;;5034303;28;20215;-84
2022/12/29 06:35:45;;;;;;;10.83;8.17;;;0.60;99.90;;;;;;5034350;28;20238;-84
2022/12/29 06:38:14;;;;;;;9.23;7.33;;;0.70;99.90;;;;;;5034533;28;20336;-84
2022/12/29 06:40:44;;;;;;;8.03;7.23;;;0.70;99.90;;;;;;5034992;28;20313;-84
2022/12/29 06:43:14;;;;;;;9.13;8.07;;;0.80;99.90;;;;;;5034829;28;20416;-84
2022/12/29 06:45:43;;;;;;;11.67;10.30;;;0.80;99.90;;;;;;5034211;28;20234;-84
2022/12/29 06:48:11;;;;;;;12.93;10.17;;;0.90;99.90;;;;;;5034496;28;20271;-83
2022/12/29 06:50:40;;;;;;;12.47;9.97;;;1.00;99.90;;;;;;5034198;28;20207;-84
2022/12/29 06:53:08;;;;;;;14.25;10.15;;;1.00;99.90;;;;;;5034349;28;20294;-83
2022/12/29 06:55:36;;;;;;;11.20;9.48;;;1.00;99.90;;;;;;5034090;28;20229;-85
2022/12/29 06:58:04;;;;;;;14.93;11.32;;;1.00;99.90;;;;;;5033964;28;20214;-84
2022/12/29 07:00:34;;;;;;;12.57;10.63;;;1.10;99.90;;;;;;5034113;28;20305;-85
2022/12/29 07:03:02;;;;;;;14.15;12.05;;;1.10;99.90;;;;;;5033287;28;20206;-84
2022/12/29 07:05:32;;;;;;;12.93;10.60;;;1.10;99.90;;;;;;5034367;28;20226;-84
2022/12/29 07:08:00;;;;;;;18.37;10.97;;;1.00;99.90;;;;;;5033812;28;20297;-83
2022/12/29 07:10:29;;;;;;;15.05;10.80;;;1.00;99.90;;;;;;5034011;28;20229;-84
2022/12/29 07:12:57;;;;;;;17.60;11.27;;;1.00;99.90;;;;;;5034015;28;20202;-85
2022/12/29 07:15:25;;;;;;;19.35;10.93;;;1.00;99.90;;;;;;5034028;28;20236;-84
2022/12/29 07:17:55;;;;;;;13.32;10.38;;;0.90;99.90;;;;;;5033790;28;20221;-85
2022/12/29 07:20:23;;;;;;;12.50;9.30;;;0.90;99.90;;;;;;5033881;28;20236;-84
2022/12/29 07:22:54;;;;;;;12.77;8.68;;;0.90;99.90;;;;;;5034094;28;20210;-83
2022/12/29 07:25:22;;;;;;;12.67;8.87;;;0.90;99.90;;;;;;5034136;28;20223;-85
2022/12/29 07:27:51;;;;;;;8.30;7.50;;;0.80;99.90;;;;;;5033620;28;20285;-84
2022/12/29 07:30:19;;;;;;;9.30;8.27;;;0.90;99.90;;;;;;5033646;28;20218;-84
2022/12/29 07:32:47;;;;;;;12.83;8.97;;;0.80;99.90;;;;;;5033698;28;20202;-83
2022/12/29 07:35:17;;;;;;;8.77;7.43;;;0.80;99.90;;;;;;5033299;28;20393;-86
2022/12/29 07:37:46;;;;;;;14.40;9.27;;;0.80;99.90;;;;;;5033306;28;20274;-84
2022/12/29 07:40:14;;;;;;;11.27;8.68;;;0.80;99.90;;;;;;5033672;28;20222;-84
2022/12/29 07:42:42;;;;;;;10.37;8.70;;;0.90;99.90;;;;;;5033709;28;20213;-84
2022/12/29 07:45:11;;;;;;;10.07;8.17;;;0.90;99.90;;;;;;5033234;28;20227;-84
2022/12/29 07:47:39;;;;;;;10.30;8.07;;;0.90;99.90;;;;;;5032829;28;20206;-84
2022/12/29 07:50:08;;;;;;;11.43;8.63;;;0.90;99.90;;;;;;5033127;28;20210;-84
2022/12/29 07:52:38;;;;;;;11.37;8.80;;;0.90;99.90;;;;;;5033152;28;20292;-84
2022/12/29 07:55:07;;;;;;;13.90;9.80;;;1.00;99.90;;;;;;5032717;28;20227;-84
2022/12/29 07:57:35;;;;;;;15.32;10.00;;;0.90;99.90;;;;;;5032583;28;20206;-85
2022/12/29 08:00:04;;;;;;;21.53;11.57;;;1.00;99.90;;;;;;5032956;28;20211;-85
2022/12/29 08:02:32;;;;;;;13.98;11.45;;;1.00;99.90;;;;;;5032542;28;20216;-85
2022/12/29 08:05:01;;;;;;;15.98;12.43;;;1.00;99.90;;;;;;5032724;28;20222;-85
2022/12/29 08:07:29;;;;;;;17.73;12.57;;;1.00;99.90;;;;;;5032554;28;20275;-85
2022/12/29 08:09:59;;;;;;;16.73;11.82;;;1.00;99.90;;;;;;5032731;28;20207;-84
2022/12/29 08:12:27;;;;;;;20.87;13.27;;;1.00;99.90;;;;;;5032662;28;20207;-84
2022/12/29 08:14:55;;;;;;;21.73;14.00;;;1.00;99.90;;;;;;5032654;28;20226;-84
2022/12/29 08:17:23;;;;;;;18.02;13.18;;;1.00;99.90;;;;;;5033015;28;20210;-84
2022/12/29 08:19:52;;;;;;;25.93;14.17;;;1.00;99.90;;;;;;5032631;28;20281;-84
2022/12/29 08:22:20;;;;;;;18.60;13.37;;;1.00;99.90;;;;;;5032156;28;20229;-84
2022/12/29 08:24:48;;;;;;;19.60;14.20;;;1.00;99.90;;;;;;5032308;28;20233;-84
2022/12/29 08:27:18;;;;;;;15.80;12.53;;;1.00;99.90;;;;;;5032847;28;20206;-84
2022/12/29 08:29:48;;;;;;;17.10;14.17;;;1.00;99.90;;;;;;5032810;28;20214;-84
2022/12/29 08:32:17;;;;;;;24.43;13.23;;;0.90;99.90;;;;;;5032472;28;20213;-85
2022/12/29 08:34:48;;;;;;;17.97;14.80;;;0.80;99.90;;;;;;5032556;28;20234;-84
2022/12/29 08:37:16;;;;;;;18.52;13.32;;;0.80;99.90;;;;;;5031892;28;20207;-84
2022/12/29 08:39:44;;;;;;;17.00;13.93;;;0.80;99.90;;;;;;5032209;28;20219;-85
2022/12/29 08:42:12;;;;;;;19.20;14.00;;;0.80;99.90;;;;;;5031952;28;20237;-84
2022/12/29 08:44:42;;;;;;;20.33;12.70;;;0.90;99.90;;;;;;5032429;28;20230;-85
2022/12/29 08:47:11;;;;;;;15.83;12.23;;;0.90;99.90;;;;;;5031907;28;20286;-84
2022/12/29 08:49:40;;;;;;;19.50;14.27;;;0.90;99.90;;;;;;5032025;28;20230;-85
2022/12/29 08:52:09;;;;;;;26.20;13.80;;;0.90;99.90;;;;;;5032544;28;20298;-85
2022/12/29 08:54:37;;;;;;;15.20;12.63;;;0.80;99.90;;;;;;5031970;28;20232;-85
2022/12/29 08:57:05;;;;;;;18.93;14.63;;;0.90;99.90;;;;;;5031771;28;20210;-84
2022/12/29 08:59:34;;;;;;;23.53;16.30;;;0.90;99.90;;;;;;5032188;28;20297;-85
2022/12/29 09:02:03;;;;;;;21.33;13.77;;;0.90;99.90;;;;;;5031990;28;20314;-84
2022/12/29 09:04:32;;;;;;;23.43;16.00;;;1.00;99.90;;;;;;5032549;28;20233;-84
2022/12/29 09:07:00;;;;;;;20.57;15.27;;;1.00;99.90;;;;;;5032162;28;20212;-85
2022/12/29 09:09:29;;;;;;;18.15;14.75;;;1.10;99.90;;;;;;5032162;28;20229;-86
2022/12/29 09:11:57;;;;;;;25.33;15.60;;;1.10;99.90;;;;;;5032094;28;20202;-85
2022/12/29 09:14:25;;;;;;;21.85;15.27;;;1.10;99.90;;;;;;5031848;28;20221;-84
2022/12/29 09:19:41;;;;;;;17.35;12.77;;;1.10;99.90;;;;;;5032322;28;20221;-85
2022/12/29 09:22:10;;;;;;;15.25;13.65;;;1.20;99.90;;;;;;5029603;28;20309;-85
2022/12/29 09:24:38;;;;;;;18.48;13.00;;;1.20;99.90;;;;;;5029929;28;20226;-86
2022/12/29 09:27:06;;;;;;;17.42;12.27;;;1.30;99.90;;;;;;5033329;28;20221;-86
2022/12/29 09:29:35;;;;;;;20.50;14.35;;;1.30;99.90;;;;;;5034148;28;20210;-85
2022/12/29 09:32:03;;;;;;;15.32;12.57;;;1.40;99.90;;;;;;5033380;28;20205;-85
2022/12/29 09:34:35;;;;;;;18.70;12.73;;;1.40;99.90;;;;;;5033344;28;20284;-86
2022/12/29 09:37:05;;;;;;;16.75;12.73;;;1.30;99.90;;;;;;5033534;28;20222;-86
2022/12/29 09:39:33;;;;;;;18.08;14.70;;;1.40;99.90;;;;;;5033297;28;20214;-86
2022/12/29 09:42:08;;;;;;;20.33;14.52;;;1.40;99.90;;;;;;5032969;28;20241;-85
2022/12/29 09:44:50;;;;;;;16.95;14.85;;;1.40;99.90;;;;;;5033073;28;20234;-86
2022/12/29 09:47:21;;;;;;;18.27;14.40;;;1.40;99.90;;;;;;5032782;28;20214;-86
2022/12/29 09:49:55;;;;;;;19.75;13.75;;;1.40;99.90;;;;;;5033249;28;20221;-86
2022/12/29 09:52:29;;;;;;;14.82;13.00;;;1.40;99.90;;;;;;5033388;28;20210;-86
2022/12/29 09:55:00;;;;;;;14.77;12.93;;;1.30;99.90;;;;;;5033052;28;20238;-86
2022/12/29 09:57:41;;;;;;;19.40;14.05;;;1.30;99.90;;;;;;5032893;28;20262;-85
2022/12/29 10:00:14;;;;;;;14.25;10.93;;;1.20;99.90;;;;;;5032988;28;20225;-87
2022/12/29 10:02:45;;;;;;;19.35;14.85;;;1.20;99.90;;;;;;5032276;28;20234;-85
2022/12/29 10:05:30;;;;;;;15.27;12.80;;;1.20;99.90;;;;;;5032436;28;20256;-85
2022/12/29 10:08:14;;;;;;;17.52;13.07;;;1.20;99.90;;;;;;5032350;28;20207;-85
2022/12/29 10:10:51;;;;;;;20.02;14.77;;;1.20;99.90;;;;;;5033207;28;20295;-86
2022/12/29 10:13:34;;;;;;;17.13;13.07;;;1.30;99.90;;;;;;5032900;28;20264;-85
2022/12/29 10:16:09;;;;;;;16.55;13.18;;;1.40;99.90;;;;;;5032869;28;20290;-85
2022/12/29 10:18:58;;;;;;;18.48;12.75;;;1.40;99.90;;;;;;5032294;28;20214;-85
2022/12/29 10:21:40;;;;;;;18.67;13.48;;;1.40;99.90;;;;;;5032408;28;20242;-85
2022/12/29 10:24:13;;;;;;;18.55;13.88;;;1.40;99.90;;;;;;5032605;28;20214;-85
2022/12/29 10:26:43;;;;;;;17.77;13.70;;;1.30;99.90;;;;;;5032329;28;20240;-86
2022/12/29 10:29:17;;;;;;;17.10;13.57;;;1.50;99.90;;;;;;5032246;28;20293;-85
2022/12/29 10:31:49;;;;;;;22.20;15.57;;;1.50;99.90;;;;;;5032159;28;20313;-85
2022/12/29 10:34:24;;;;;;;19.80;14.80;;;1.70;99.90;;;;;;5031607;28;20249;-84
2022/12/29 10:36:59;;;;;;;20.60;16.08;;;1.80;99.90;;;;;;5031788;28;20232;-86
2022/12/29 10:39:33;;;;;;;17.65;15.30;;;1.90;99.90;;;;;;5032360;28;20206;-85
2022/12/29 10:42:10;;;;;;;15.50;13.60;;;1.90;99.90;;;;;;5031957;28;20229;-86
2022/12/29 10:44:39;;;;;;;18.63;13.90;;;1.80;99.90;;;;;;5032045;28;20233;-86
2022/12/29 10:47:12;;;;;;;20.77;15.07;;;1.90;99.90;;;;;;5031445;28;20214;-86
2022/12/29 10:49:43;;;;;;;24.90;15.20;;;1.80;99.90;;;;;;5032146;28;20214;-87
2022/12/29 10:52:14;;;;;;;21.50;16.30;;;1.90;99.90;;;;;;5032334;28;20217;-85
2022/12/29 10:54:49;;;;;;;20.85;16.17;;;1.90;99.90;;;;;;5031790;28;20230;-85
2022/12/29 10:57:26;;;;;;;26.38;16.38;;;1.90;99.90;;;;;;5031783;28;20214;-86
2022/12/29 10:59:55;;;;;;;20.80;15.55;;;1.80;99.90;;;;;;5032273;28;20220;-84
2022/12/29 11:02:56;;;;;;;34.22;17.25;;;1.80;99.90;;;;;;5031581;28;20232;-84
2022/12/29 11:05:33;;;;;;;24.13;16.65;;;1.80;99.90;;;;;;4989364;28;20311;-83
2022/12/29 11:08:05;;;;;;;15.95;14.23;;;1.80;99.90;;;;;;5031654;28;20210;-83
2022/12/29 11:10:40;;;;;;;19.73;15.10;;;1.80;99.90;;;;;;5032245;28;20214;-83
2022/12/29 11:13:15;;;;;;;17.40;14.50;;;1.80;99.90;;;;;;5033751;28;20233;-83
2022/12/29 11:15:46;;;;;;;17.60;15.38;;;1.80;99.90;;;;;;5033837;28;20225;-83
2022/12/29 11:18:25;;;;;;;18.35;14.73;;;1.70;99.90;;;;;;5033394;28;20206;-83
2022/12/29 11:20:56;;;;;;;26.13;16.33;;;1.80;99.90;;;;;;5033821;28;20221;-84
2022/12/29 11:23:27;;;;;;;24.65;17.02;;;1.90;99.90;;;;;;5033571;28;20229;-83
2022/12/29 11:26:24;;;;;;;19.25;16.48;;;1.90;99.90;;;;;;5033548;28;20230;-83
2022/12/29 11:29:22;;;;;;;21.38;16.27;;;1.90;99.90;;;;;;5012026;28;20247;-83
2022/12/29 11:31:51;;;;;;;16.67;14.73;;;1.90;99.90;;;;;;5033774;28;20297;-82
2022/12/29 11:34:23;;;;;;;25.23;16.35;;;1.90;99.90;;;;;;5033019;28;20241;-83
2022/12/29 11:36:53;;;;;;;18.15;15.23;;;1.80;99.90;;;;;;5032544;28;20220;-84
2022/12/29 11:39:33;;;;;;;16.83;15.07;;;1.90;99.90;;;;;;5033540;28;20215;-84
2022/12/29 11:42:04;;;;;;;21.80;15.82;;;2.10;99.90;;;;;;5033365;28;20206;-83
2022/12/29 11:44:38;;;;;;;18.98;15.23;;;2.20;99.90;;;;;;5033348;28;20285;-83
2022/12/29 11:47:08;;;;;;;18.48;15.98;;;2.20;99.90;;;;;;5032779;28;20212;-84
2022/12/29 11:49:37;;;;;;;22.73;16.27;;;2.30;99.90;;;;;;5032966;28;20206;-84
2022/12/29 11:52:06;;;;;;;20.17;16.23;;;2.20;99.90;;;;;;5033182;28;20217;-84
2022/12/29 11:54:37;;;;;;;21.52;16.50;;;2.20;99.90;;;;;;5033327;28;20210;-83
2022/12/29 11:57:16;;;;;;;26.42;16.23;;;2.10;99.90;;;;;;5033022;28;20203;-84
2022/12/29 11:59:50;;;;;;;17.75;14.30;;;2.00;99.90;;;;;;5033206;28;20210;-84
2022/12/29 12:02:49;;;;;;;19.75;15.80;;;2.10;99.90;;;;;;5032854;28;20233;-83
2022/12/29 12:05:30;;;;;;;24.48;17.42;;;2.20;99.90;;;;;;5032751;28;20230;-84
2022/12/29 12:08:04;;;;;;;25.40;16.63;;;2.30;99.90;;;;;;5032907;28;20216;-84
2022/12/29 12:10:38;;;;;;;24.52;16.15;;;2.30;99.90;;;;;;5033023;28;20209;-84
2022/12/29 12:13:18;;;;;;;19.77;17.60;;;2.30;99.90;;;;;;5032943;28;20213;-84
2022/12/29 12:15:53;;;;;;;26.75;17.98;;;2.30;99.90;;;;;;5032766;28;20230;-84
2022/12/29 12:18:33;;;;;;;24.67;17.52;;;2.30;99.90;;;;;;5032549;28;20210;-84
2022/12/29 12:21:14;;;;;;;27.88;18.98;;;2.40;99.90;;;;;;5032952;28;20198;-84
2022/12/29 12:24:07;;;;;;;24.98;17.90;;;2.40;99.90;;;;;;5032549;28;20242;-84
2022/12/29 12:26:40;;;;;;;28.60;19.17;;;2.30;99.90;;;;;;5007959;28;20226;-83
2022/12/29 12:29:17;;;;;;;24.50;17.60;;;2.30;99.90;;;;;;5032478;28;20202;-85
2022/12/29 12:31:50;;;;;;;24.92;17.95;;;2.30;99.90;;;;;;5032656;28;20221;-85
2022/12/29 12:34:25;;;;;;;24.80;18.27;;;2.40;99.90;;;;;;5032358;28;20203;-83
2022/12/29 12:37:16;;;;;;;21.27;16.92;;;2.40;99.90;;;;;;5032911;28;20275;-83
2022/12/29 12:39:57;;;;;;;28.45;19.63;;;2.50;99.90;;;;;;5032343;28;20206;-83
2022/12/29 12:42:36;;;;;;;20.73;17.73;;;2.50;99.90;;;;;;5032632;28;20210;-83
2022/12/29 12:45:31;;;;;;;20.83;16.67;;;2.50;99.90;;;;;;5032378;28;20244;-83
2022/12/29 12:48:10;;;;;;;28.13;18.63;;;2.60;99.90;;;;;;5032133;28;20210;-84
2022/12/29 12:50:50;;;;;;;20.45;17.05;;;2.60;99.90;;;;;;5032840;28;20206;-84
2022/12/29 12:53:49;;;;;;;26.63;18.38;;;2.70;99.90;;;;;;5032534;28;20220;-84
2022/12/29 12:56:35;;;;;;;21.70;17.58;;;2.80;99.90;;;;;;5027443;28;20313;-84
2022/12/29 12:59:13;;;;;;;21.85;17.77;;;2.80;99.90;;;;;;5032287;28;20285;-84
2022/12/29 13:01:54;;;;;;;24.15;18.85;;;2.90;99.90;;;;;;5035996;28;20227;-84
2022/12/29 13:04:49;;;;;;;24.92;19.60;;;2.90;99.90;;;;;;5036222;28;20229;-84
2022/12/29 13:07:29;;;;;;;19.15;16.15;;;3.00;99.90;;;;;;5034086;28;20229;-84
2022/12/29 13:10:17;;;;;;;26.67;17.95;;;3.10;99.90;;;;;;5036092;28;20210;-84
2022/12/29 13:12:53;;;;;;;24.98;18.63;;;3.20;99.90;;;;;;5036066;28;20257;-84
2022/12/29 13:15:44;;;;;;;27.90;19.10;;;3.20;99.90;;;;;;5036276;28;20237;-83
2022/12/29 13:18:23;;;;;;;22.17;18.10;;;3.10;99.90;;;;;;5036463;28;20294;-84
2022/12/29 13:20:57;;;;;;;29.85;18.67;;;3.00;99.90;;;;;;5035945;28;20217;-83
2022/12/29 13:23:32;;;;;;;22.48;16.50;;;3.00;99.90;;;;;;5036069;28;20222;-83
2022/12/29 13:26:09;;;;;;;21.85;17.58;;;3.00;99.90;;;;;;5036557;28;20230;-83
2022/12/29 13:28:50;;;;;;;25.77;19.58;;;3.00;99.90;;;;;;5036043;28;20285;-83
2022/12/29 13:31:24;;;;;;;21.98;18.23;;;2.90;99.90;;;;;;5036016;28;20214;-83
2022/12/29 13:34:01;;;;;;;24.88;19.48;;;3.00;99.90;;;;;;5036031;28;20258;-83
2022/12/29 13:36:37;;;;;;;24.52;18.05;;;3.00;99.90;;;;;;5036221;28;20321;-83
2022/12/29 13:39:11;;;;;;;23.75;18.48;;;3.00;99.90;;;;;;5035646;28;20218;-83
2022/12/29 13:41:50;;;;;;;27.48;20.25;;;2.90;99.90;;;;;;5036122;28;20237;-83
2022/12/29 13:44:24;;;;;;;26.20;19.77;;;2.80;99.90;;;;;;5035697;28;20232;-84
2022/12/29 13:46:54;;;;;;;21.38;18.45;;;2.80;99.90;;;;;;5035275;28;20207;-83
2022/12/29 13:49:24;;;;;;;23.98;17.05;;;2.80;99.90;;;;;;5036020;28;20266;-83
2022/12/29 13:51:56;;;;;;;26.95;18.85;;;2.70;99.90;;;;;;5035531;28;20229;-84